Hlavní strana
METAR-TAF:

METAR-TAF

Letiště :

Edgar County Airport

Paris, Illinois, Spojené státy americké

zeměpisná šířka: 39-42-01N, zeměpisná délka: 087-40-11W, výška: 199 m

Aktuální stav počasí

Zpráva byla vytvořena před 22 minutami, v 09:15 UTC
Severní vítr 6 kt
Teplota -6°C
Vlhkost vzduchu 86%
Tlak 1018 hPa
Viditelnost: 16.1 km
Polojasno ve výšce 1100 ft

METAR: KPRG 160915Z AUTO 36006KT 10SM SCT011 M06/M08 A3006 RMK AO2 T10601081

Čas: 03:37 (09:37 UTC)


TAF: chybějící

Stav a předpovědi počasí z více než 4 000 letišť (zprávy METAR a TAF).

Červené a žluté tečky na mapě představují dostupné meteorologické stanice.

Když kurzor umístíte na tečku, zobrazí se název stanice.

Pak kliknutím zobrazíte stav a předpověď počasí.

Chcete-li změnit mapu, kliknutím na zelené tlačítko se znaménkem +mapu přiblížíte, kliknutím na zelené tlačítko se znaménkem – mapu oddálíte a kliknutím na zelené šipky přejdete na sousední mapy.


METAR-TAF: